Time;durP1;ratioP1;P1;durP2;ratioP2;P2;SDS_P1;SDS_P2;PMS_P1;PMS_P2;Temp;Humidity;BMP_temperature;BMP_pressure;BME280_temperature;BME280_humidity;BME280_pressure;Samples;Min_cycle;Max_cycle;Signal;HPM_P1;HPM_P2
2023/06/15 00:00:49;;;;;;;7.28;3.28;;;14.90;99.90;;;;;;5091215;28;20554;-45
2023/06/15 00:03:16;;;;;;;5.32;3.00;;;14.80;99.90;;;;;;5074639;28;20060;-48
2023/06/15 00:05:42;;;;;;;6.85;3.38;;;14.80;99.90;;;;;;5090785;28;20510;-46
2023/06/15 00:08:07;;;;;;;7.40;3.47;;;14.80;99.90;;;;;;5090921;28;20047;-46
2023/06/15 00:10:33;;;;;;;5.97;3.20;;;14.70;99.90;;;;;;5092818;28;20748;-49
2023/06/15 00:12:59;;;;;;;6.60;3.40;;;14.80;99.90;;;;;;5091168;28;20048;-45
2023/06/15 00:15:27;;;;;;;8.73;3.63;;;14.60;99.90;;;;;;5090183;28;20244;-46
2023/06/15 00:17:54;;;;;;;6.97;3.05;;;14.80;99.90;;;;;;5073219;28;20545;-46
2023/06/15 00:20:22;;;;;;;7.53;3.80;;;14.50;99.90;;;;;;5092339;28;20118;-45
2023/06/15 00:22:49;;;;;;;11.80;3.42;;;14.50;99.90;;;;;;5092220;28;20162;-46
2023/06/15 00:25:15;;;;;;;7.13;3.40;;;14.70;99.90;;;;;;5092185;28;20512;-47
2023/06/15 00:27:42;;;;;;;6.05;3.42;;;14.50;99.90;;;;;;5093221;28;20045;-44
2023/06/15 00:30:11;;;;;;;15.82;4.28;;;14.50;99.90;;;;;;5074452;28;20047;-49
2023/06/15 00:32:37;;;;;;;9.10;3.53;;;14.40;99.90;;;;;;5092139;28;20550;-47
2023/06/15 00:35:04;;;;;;;8.13;3.80;;;14.50;99.90;;;;;;5090521;28;20139;-50
2023/06/15 00:37:30;;;;;;;8.02;3.80;;;14.40;99.90;;;;;;5092488;28;20118;-48
2023/06/15 00:39:56;;;;;;;8.00;3.70;;;14.30;99.90;;;;;;5091581;28;20150;-49
2023/06/15 00:42:21;;;;;;;7.38;3.63;;;14.10;99.90;;;;;;5091353;28;20047;-49
2023/06/15 00:44:47;;;;;;;7.00;3.63;;;14.20;99.90;;;;;;5091974;28;20040;-45
2023/06/15 00:47:17;;;;;;;11.55;3.80;;;14.40;99.90;;;;;;5090960;28;20040;-48
2023/06/15 00:49:44;;;;;;;16.80;4.18;;;14.20;99.90;;;;;;5089378;28;20066;-49
2023/06/15 00:52:12;;;;;;;10.52;3.50;;;14.40;99.90;;;;;;5091409;28;20094;-46
2023/06/15 00:54:40;;;;;;;7.13;3.40;;;14.10;99.90;;;;;;5091359;28;20113;-48
2023/06/15 00:57:08;;;;;;;9.02;4.10;;;14.20;99.90;;;;;;5074631;28;20057;-45
2023/06/15 00:59:35;;;;;;;7.60;3.38;;;14.20;99.90;;;;;;5072222;28;20036;-50
2023/06/15 01:02:03;;;;;;;5.72;3.65;;;14.10;99.90;;;;;;5092248;28;20122;-47
2023/06/15 01:04:29;;;;;;;8.55;3.60;;;14.10;99.90;;;;;;5071383;28;20094;-48
2023/06/15 01:07:04;;;;;;;9.13;3.33;;;13.90;99.90;;;;;;5090864;28;20047;-47
2023/06/15 01:09:35;;;;;;;9.35;3.70;;;13.90;99.90;;;;;;5090785;28;20036;-47
2023/06/15 01:12:05;;;;;;;8.73;3.80;;;14.00;99.90;;;;;;5071430;28;20082;-49
2023/06/15 01:14:32;;;;;;;8.48;4.20;;;13.90;99.90;;;;;;5090305;28;20027;-51
2023/06/15 01:17:07;;;;;;;7.13;3.65;;;14.10;99.90;;;;;;5090492;28;20080;-47
2023/06/15 01:19:57;;;;;;;9.82;4.30;;;13.90;99.90;;;;;;5089130;28;20051;-45
2023/06/15 01:22:55;;;;;;;11.35;3.92;;;14.00;99.90;;;;;;5089866;28;20044;-47
2023/06/15 01:25:29;;;;;;;9.00;4.05;;;13.90;99.90;;;;;;5090710;28;20088;-48
2023/06/15 01:28:03;;;;;;;9.02;4.35;;;13.70;99.90;;;;;;5092351;28;20039;-47
2023/06/15 01:30:37;;;;;;;8.10;4.10;;;13.90;99.90;;;;;;5089906;28;20054;-47
2023/06/15 01:33:03;;;;;;;11.20;5.03;;;13.80;99.90;;;;;;5094080;28;20032;-49
2023/06/15 01:35:28;;;;;;;8.88;4.30;;;13.80;99.90;;;;;;5095243;28;20047;-48
2023/06/15 01:37:54;;;;;;;9.38;4.13;;;13.90;99.90;;;;;;5096990;28;20032;-49
2023/06/15 01:40:20;;;;;;;6.95;4.93;;;13.80;99.90;;;;;;5093843;28;20100;-50
2023/06/15 01:42:47;;;;;;;7.05;4.68;;;13.90;99.90;;;;;;5073646;28;20625;-47
2023/06/15 01:45:14;;;;;;;6.35;4.10;;;13.60;99.90;;;;;;5093508;28;20663;-49
2023/06/15 01:47:40;;;;;;;9.73;4.45;;;13.70;99.90;;;;;;5096896;28;20036;-47
2023/06/15 01:50:08;;;;;;;11.38;4.40;;;13.80;99.90;;;;;;5094782;28;20160;-53
2023/06/15 01:52:34;;;;;;;14.70;5.07;;;13.90;99.90;;;;;;5096208;28;20211;-50
2023/06/15 01:55:00;;;;;;;8.90;4.50;;;13.90;99.90;;;;;;5076667;28;20160;-47
2023/06/15 01:57:25;;;;;;;7.70;4.40;;;14.00;99.90;;;;;;5097385;28;20035;-48
2023/06/15 01:59:54;;;;;;;5.90;4.07;;;13.90;99.90;;;;;;5093909;28;20040;-50
2023/06/15 02:02:20;;;;;;;11.38;4.72;;;13.70;99.90;;;;;;5092797;28;20058;-48
2023/06/15 02:04:46;;;;;;;8.70;4.50;;;13.80;99.90;;;;;;5094341;28;20403;-49
2023/06/15 02:07:12;;;;;;;6.28;3.78;;;13.80;99.90;;;;;;5095152;28;20044;-47
2023/06/15 02:09:37;;;;;;;7.95;4.30;;;13.70;99.90;;;;;;5093934;28;20043;-50
2023/06/15 02:12:03;;;;;;;10.40;4.95;;;13.50;99.90;;;;;;5094286;28;20036;-46
2023/06/15 02:14:29;;;;;;;8.73;4.30;;;13.60;99.90;;;;;;5093569;28;20124;-47
2023/06/15 02:16:56;;;;;;;7.95;4.00;;;13.30;99.90;;;;;;5095141;28;20051;-47
2023/06/15 02:19:22;;;;;;;7.28;3.90;;;13.20;99.90;;;;;;5074812;28;20047;-51
2023/06/15 02:21:49;;;;;;;10.13;4.40;;;13.20;99.90;;;;;;5075999;28;20046;-50
2023/06/15 02:24:16;;;;;;;8.48;4.05;;;13.20;99.90;;;;;;5091770;28;20040;-46
2023/06/15 02:26:42;;;;;;;13.43;4.25;;;13.00;99.90;;;;;;5095488;28;20088;-48
2023/06/15 02:29:08;;;;;;;10.77;4.60;;;13.10;99.90;;;;;;5094579;28;20043;-46
2023/06/15 02:31:35;;;;;;;13.68;4.30;;;13.00;99.90;;;;;;5075570;28;20577;-49
2023/06/15 02:34:01;;;;;;;7.47;4.40;;;13.00;99.90;;;;;;5092838;28;20109;-50
2023/06/15 02:36:28;;;;;;;8.52;4.97;;;14.60;99.90;;;;;;5094398;28;20559;-46
2023/06/15 02:38:54;;;;;;;9.25;4.80;;;12.80;99.90;;;;;;5093968;28;20046;-48
2023/06/15 02:41:20;;;;;;;10.30;5.03;;;12.90;99.90;;;;;;5093624;28;20039;-48
2023/06/15 02:43:46;;;;;;;8.20;5.15;;;13.00;99.90;;;;;;5092610;28;20043;-49
2023/06/15 02:46:11;;;;;;;7.43;4.85;;;12.90;99.90;;;;;;5095162;28;20048;-50
2023/06/15 02:48:37;;;;;;;9.68;4.95;;;12.90;99.90;;;;;;5092610;28;20071;-50
2023/06/15 02:51:03;;;;;;;8.65;4.43;;;12.80;99.90;;;;;;5095305;28;20589;-48
2023/06/15 02:53:29;;;;;;;8.98;4.57;;;12.90;99.90;;;;;;5096448;28;20534;-47
2023/06/15 02:55:56;;;;;;;9.02;4.50;;;13.00;99.90;;;;;;5093735;28;20075;-48
2023/06/15 02:58:24;;;;;;;7.10;4.70;;;12.80;99.90;;;;;;5095680;28;20059;-48
2023/06/15 03:00:51;;;;;;;8.73;5.03;;;12.90;99.90;;;;;;5095484;28;20090;-48
2023/06/15 03:03:22;;;;;;;9.35;4.70;;;12.70;99.90;;;;;;5094084;28;20504;-50
2023/06/15 03:05:48;;;;;;;12.07;5.15;;;12.80;99.90;;;;;;5076378;28;20097;-51
2023/06/15 03:08:15;;;;;;;9.43;4.60;;;12.70;99.90;;;;;;5093661;28;20040;-45
2023/06/15 03:10:41;;;;;;;10.00;5.07;;;12.60;99.90;;;;;;5093528;28;20079;-49
2023/06/15 03:13:06;;;;;;;9.15;4.93;;;12.50;99.90;;;;;;5092517;28;20139;-49
2023/06/15 03:15:32;;;;;;;11.52;5.45;;;12.60;99.90;;;;;;5076779;28;20392;-46
2023/06/15 03:17:58;;;;;;;8.20;4.60;;;12.50;99.90;;;;;;5091804;28;20047;-45
2023/06/15 03:20:24;;;;;;;11.98;5.22;;;12.40;99.90;;;;;;5075172;28;20032;-47
2023/06/15 03:22:50;;;;;;;12.88;6.20;;;12.50;99.90;;;;;;5091818;28;20047;-48
2023/06/15 03:25:16;;;;;;;8.07;5.22;;;12.50;99.90;;;;;;5093194;28;20082;-51
2023/06/15 03:27:42;;;;;;;11.13;5.88;;;12.50;99.90;;;;;;5092850;28;20036;-49
2023/06/15 03:30:10;;;;;;;8.13;4.82;;;12.60;99.90;;;;;;5074419;28;20044;-48
2023/06/15 03:32:37;;;;;;;12.90;5.15;;;12.70;99.90;;;;;;5091745;28;20039;-46
2023/06/15 03:35:04;;;;;;;13.38;5.68;;;12.40;99.90;;;;;;5090766;28;20048;-48
2023/06/15 03:37:29;;;;;;;7.57;4.95;;;12.50;99.90;;;;;;5091290;28;20105;-47
2023/06/15 03:39:55;;;;;;;10.05;5.57;;;12.80;99.90;;;;;;5092502;28;20123;-49
2023/06/15 03:42:21;;;;;;;9.77;5.30;;;12.70;99.90;;;;;;5073058;28;20379;-47
2023/06/15 03:44:46;;;;;;;9.45;5.30;;;12.60;99.90;;;;;;5089811;28;20043;-48
2023/06/15 03:47:12;;;;;;;10.48;5.05;;;12.60;99.90;;;;;;5090907;28;20716;-50
2023/06/15 03:49:38;;;;;;;10.35;5.90;;;12.70;99.90;;;;;;5091952;28;20043;-45
2023/06/15 03:52:04;;;;;;;7.72;4.95;;;12.90;99.90;;;;;;5092177;28;20052;-47
2023/06/15 03:54:30;;;;;;;11.18;5.53;;;12.80;99.90;;;;;;5090408;28;20031;-45
2023/06/15 03:56:55;;;;;;;8.98;4.75;;;12.70;99.90;;;;;;5092298;28;20639;-48
2023/06/15 03:59:23;;;;;;;9.18;5.20;;;12.80;99.90;;;;;;5091825;28;20050;-47
2023/06/15 04:01:49;;;;;;;9.30;5.22;;;12.80;99.90;;;;;;5091545;28;20142;-49
2023/06/15 04:04:15;;;;;;;15.85;5.68;;;13.10;99.90;;;;;;5090373;28;20337;-48
2023/06/15 04:06:46;;;;;;;9.38;5.38;;;12.90;99.90;;;;;;5091369;28;20152;-47
2023/06/15 04:09:13;;;;;;;9.88;5.38;;;13.20;99.90;;;;;;5074180;28;20050;-50
2023/06/15 04:11:40;;;;;;;9.38;5.88;;;13.10;99.90;;;;;;5093707;28;20044;-48
2023/06/15 04:14:05;;;;;;;12.40;6.28;;;13.40;99.90;;;;;;5092092;28;20043;-48
2023/06/15 04:16:31;;;;;;;10.10;5.55;;;13.10;99.90;;;;;;5091758;28;20047;-45
2023/06/15 04:18:57;;;;;;;12.52;5.38;;;13.30;99.90;;;;;;5073696;28;20399;-46
2023/06/15 04:21:23;;;;;;;10.15;5.65;;;13.40;99.90;;;;;;5093588;28;20040;-46
2023/06/15 04:23:48;;;;;;;7.90;5.05;;;13.50;99.90;;;;;;5092304;28;20395;-46
2023/06/15 04:26:14;;;;;;;11.10;5.57;;;13.60;99.90;;;;;;5092466;28;20046;-48
2023/06/15 04:28:40;;;;;;;8.85;5.15;;;13.60;99.90;;;;;;5092936;28;20508;-51
2023/06/15 04:31:09;;;;;;;9.30;4.88;;;13.70;99.90;;;;;;5093783;28;20331;-49
2023/06/15 04:33:36;;;;;;;10.32;4.50;;;13.70;99.90;;;;;;5090694;28;20898;-49
2023/06/15 04:36:03;;;;;;;9.93;4.95;;;13.90;99.90;;;;;;5091031;28;20048;-46
2023/06/15 04:38:29;;;;;;;8.15;5.00;;;14.10;99.90;;;;;;5072382;28;20058;-48
2023/06/15 04:40:56;;;;;;;8.77;5.05;;;14.20;99.90;;;;;;5090125;28;20397;-48
2023/06/15 04:43:22;;;;;;;8.80;4.65;;;14.20;99.90;;;;;;5090865;28;20043;-50
2023/06/15 04:45:48;;;;;;;9.52;4.88;;;14.40;99.90;;;;;;5090508;28;20067;-45
2023/06/15 04:48:13;;;;;;;11.20;4.60;;;14.50;99.90;;;;;;5089719;28;20122;-48
2023/06/15 04:50:39;;;;;;;10.85;5.10;;;14.50;99.90;;;;;;5089872;28;20036;-47
2023/06/15 04:53:05;;;;;;;12.50;5.90;;;14.60;99.90;;;;;;5090127;28;20039;-47
2023/06/15 04:55:31;;;;;;;8.85;4.70;;;14.70;99.90;;;;;;5090611;28;20077;-47
2023/06/15 04:57:56;;;;;;;12.38;5.32;;;14.60;99.90;;;;;;5091148;28;20040;-49
2023/06/15 05:00:22;;;;;;;10.07;5.50;;;15.00;99.90;;;;;;5089338;28;20594;-45
2023/06/15 05:02:48;;;;;;;12.82;5.75;;;15.00;99.90;;;;;;5090621;28;20544;-50
2023/06/15 05:05:15;;;;;;;11.75;5.32;;;14.90;99.90;;;;;;5089776;28;20048;-46
2023/06/15 05:07:41;;;;;;;9.32;5.90;;;15.20;99.90;;;;;;5071752;28;20043;-45
2023/06/15 05:10:07;;;;;;;11.77;5.70;;;15.20;99.90;;;;;;5092076;28;20206;-47
2023/06/15 05:12:33;;;;;;;9.50;5.25;;;15.10;99.90;;;;;;5068277;28;20179;-50
2023/06/15 05:14:58;;;;;;;11.65;6.00;;;15.40;99.90;;;;;;5088216;28;20039;-46
2023/06/15 05:17:25;;;;;;;9.43;5.13;;;15.60;99.90;;;;;;5088604;28;20830;-49
2023/06/15 05:19:51;;;;;;;7.50;5.28;;;15.70;99.90;;;;;;5090574;28;20051;-49
2023/06/15 05:22:16;;;;;;;8.10;5.28;;;15.80;99.90;;;;;;5068304;28;20047;-50
2023/06/15 05:24:42;;;;;;;11.98;5.22;;;16.00;99.90;;;;;;5072948;28;20131;-47
2023/06/15 05:27:08;;;;;;;16.92;5.53;;;16.00;99.90;;;;;;5090606;28;20308;-46
2023/06/15 05:29:36;;;;;;;11.32;5.40;;;16.00;99.90;;;;;;5091668;28;20055;-47
2023/06/15 05:32:02;;;;;;;11.52;5.40;;;16.30;99.90;;;;;;5089310;28;20519;-48
2023/06/15 05:34:28;;;;;;;9.15;5.18;;;16.10;99.90;;;;;;5089216;28;20119;-47
2023/06/15 05:36:53;;;;;;;8.60;5.10;;;16.70;99.90;;;;;;5089535;28;20038;-48
2023/06/15 05:39:20;;;;;;;16.75;5.63;;;16.20;99.90;;;;;;5090913;28;20122;-52
2023/06/15 05:41:46;;;;;;;17.85;6.30;;;16.40;99.90;;;;;;5089540;28;20059;-48
2023/06/15 05:44:12;;;;;;;12.48;5.22;;;16.60;99.90;;;;;;5089914;28;20036;-48
2023/06/15 05:46:38;;;;;;;11.27;5.60;;;16.80;99.90;;;;;;5092274;28;20465;-51
2023/06/15 05:49:03;;;;;;;12.05;5.32;;;16.80;99.90;;;;;;5090719;28;20590;-47
2023/06/15 05:51:29;;;;;;;150.93;14.98;;;17.00;99.90;;;;;;5072830;28;20079;-46
2023/06/15 05:53:55;;;;;;;107.80;8.80;;;17.00;99.90;;;;;;5089552;28;20059;-51
2023/06/15 05:56:21;;;;;;;14.18;5.18;;;17.20;99.90;;;;;;5091896;28;20036;-49
2023/06/15 05:58:46;;;;;;;72.72;7.88;;;17.20;99.90;;;;;;5093242;28;20040;-49
2023/06/15 06:01:12;;;;;;;12.35;4.70;;;17.60;99.90;;;;;;5090927;28;20471;-49
2023/06/15 06:03:38;;;;;;;14.50;4.53;;;17.70;99.90;;;;;;5092327;28;20047;-50
2023/06/15 06:06:03;;;;;;;10.75;4.25;;;17.90;99.90;;;;;;5091182;28;20079;-48
2023/06/15 06:08:29;;;;;;;7.72;3.50;;;17.90;99.90;;;;;;5072471;28;20221;-51
2023/06/15 06:10:55;;;;;;;9.65;3.30;;;17.90;99.90;;;;;;5091033;28;20122;-49
2023/06/15 06:13:21;;;;;;;8.20;2.97;;;18.10;99.90;;;;;;5074179;28;20111;-51
2023/06/15 06:15:47;;;;;;;6.45;3.00;;;18.40;99.90;;;;;;5091416;28;20047;-47
2023/06/15 06:18:12;;;;;;;7.18;2.85;;;18.90;99.90;;;;;;5091260;28;20202;-50
2023/06/15 06:20:38;;;;;;;7.47;3.08;;;19.40;99.90;;;;;;5074604;28;20039;-49
2023/06/15 06:23:04;;;;;;;4.85;2.70;;;19.60;99.90;;;;;;5094650;28;20047;-47
2023/06/15 06:25:30;;;;;;;8.90;3.10;;;19.80;99.90;;;;;;5094274;28;20040;-49
2023/06/15 06:27:55;;;;;;;6.40;2.50;;;19.90;99.90;;;;;;5094515;28;20042;-48
2023/06/15 06:30:21;;;;;;;5.88;2.40;;;19.90;99.90;;;;;;5074148;28;20452;-49
2023/06/15 06:32:47;;;;;;;6.03;2.50;;;20.00;99.90;;;;;;5093906;28;20546;-50
2023/06/15 06:35:13;;;;;;;6.93;2.75;;;19.80;99.90;;;;;;5092762;28;20039;-50
2023/06/15 06:37:38;;;;;;;7.03;2.65;;;19.80;99.90;;;;;;5093314;28;20043;-46
2023/06/15 06:40:05;;;;;;;8.30;2.63;;;19.90;99.90;;;;;;5093150;28;20080;-49
2023/06/15 06:42:31;;;;;;;7.97;2.40;;;20.10;99.90;;;;;;5093568;28;20549;-50
2023/06/15 06:44:56;;;;;;;10.60;2.60;;;20.10;99.90;;;;;;5092598;28;20143;-51
2023/06/15 06:47:22;;;;;;;14.73;3.00;;;20.30;99.90;;;;;;5093352;28;20052;-49
2023/06/15 06:49:48;;;;;;;9.18;2.28;;;20.30;99.90;;;;;;5093069;28;20115;-50
2023/06/15 06:52:14;;;;;;;7.40;2.22;;;20.60;99.90;;;;;;5093477;28;20098;-49
2023/06/15 06:54:39;;;;;;;5.75;2.03;;;21.20;99.90;;;;;;5094768;28;20074;-51
2023/06/15 06:57:05;;;;;;;6.93;2.47;;;21.60;99.90;;;;;;5073408;28;20121;-51
2023/06/15 06:59:31;;;;;;;9.50;2.40;;;21.60;99.90;;;;;;5095090;28;20249;-50
2023/06/15 07:01:57;;;;;;;6.68;2.13;;;21.60;99.90;;;;;;5093053;28;20059;-48
2023/06/15 07:04:22;;;;;;;7.15;2.00;;;21.70;99.90;;;;;;5093538;28;20197;-47
2023/06/15 07:06:48;;;;;;;6.88;1.75;;;21.90;99.90;;;;;;5092234;28;20039;-50
2023/06/15 07:09:14;;;;;;;4.93;2.10;;;22.20;99.90;;;;;;5093042;28;20092;-52
2023/06/15 07:11:39;;;;;;;5.40;2.63;;;22.60;99.90;;;;;;5094857;28;20044;-49
2023/06/15 07:14:05;;;;;;;7.65;2.38;;;23.60;99.90;;;;;;5093175;28;20047;-49
2023/06/15 07:16:31;;;;;;;7.00;2.03;;;24.40;99.90;;;;;;5093889;28;20534;-48
2023/06/15 07:18:57;;;;;;;6.85;2.08;;;25.10;99.90;;;;;;5093362;28;20036;-52
2023/06/15 07:21:23;;;;;;;10.23;2.38;;;26.00;99.90;;;;;;5095590;28;20549;-48
2023/06/15 07:23:49;;;;;;;7.93;2.15;;;26.60;99.90;;;;;;5092939;28;20047;-53
2023/06/15 07:26:15;;;;;;;4.25;1.70;;;27.60;99.90;;;;;;5093992;28;20031;-52
2023/06/15 07:28:40;;;;;;;6.50;1.88;;;28.20;99.90;;;;;;5094325;28;20048;-51
2023/06/15 07:31:06;;;;;;;8.73;2.03;;;29.10;99.90;;;;;;5093858;28;20039;-53
2023/06/15 07:33:32;;;;;;;6.72;1.80;;;29.40;98.80;;;;;;5092258;28;20074;-53
2023/06/15 07:35:57;;;;;;;7.85;1.90;;;29.80;98.20;;;;;;5093286;28;20032;-49
2023/06/15 07:38:23;;;;;;;9.88;2.10;;;30.50;98.50;;;;;;5093422;28;20051;-51
2023/06/15 07:40:49;;;;;;;4.70;2.45;;;29.40;96.70;;;;;;5093455;28;20035;-51
2023/06/15 07:43:15;;;;;;;9.32;2.08;;;32.00;96.50;;;;;;5092053;28;20547;-52
2023/06/15 07:45:44;;;;;;;10.35;2.20;;;32.00;96.50;;;;;;5093060;28;20534;-53
2023/06/15 07:48:10;;;;;;;6.90;1.95;;;32.50;95.70;;;;;;5092627;28;20047;-54
2023/06/15 07:50:36;;;;;;;6.05;1.70;;;32.60;94.60;;;;;;5075125;28;20549;-50
2023/06/15 07:53:02;;;;;;;5.45;1.73;;;32.60;93.70;;;;;;5092282;28;20067;-50
2023/06/15 07:55:28;;;;;;;7.38;1.90;;;32.90;93.20;;;;;;5091866;28;20036;-52
2023/06/15 07:57:53;;;;;;;8.27;1.92;;;32.50;92.60;;;;;;5091822;28;20036;-51
2023/06/15 08:00:20;;;;;;;7.20;1.70;;;32.80;92.20;;;;;;5093724;28;20047;-51
2023/06/15 08:02:45;;;;;;;5.78;1.92;;;32.50;91.70;;;;;;5090509;28;20059;-50
2023/06/15 08:05:11;;;;;;;7.75;1.83;;;32.60;91.20;;;;;;5091922;28;20058;-51
2023/06/15 08:07:37;;;;;;;4.60;1.60;;;32.20;91.60;;;;;;5092590;28;20099;-52
2023/06/15 08:10:03;;;;;;;5.53;1.92;;;32.20;92.20;;;;;;5092613;28;20070;-55
2023/06/15 08:12:29;;;;;;;6.40;1.77;;;32.40;90.60;;;;;;5090750;28;20494;-54
2023/06/15 08:14:55;;;;;;;7.00;2.00;;;32.00;90.50;;;;;;5092143;28;20043;-52
2023/06/15 08:17:21;;;;;;;5.53;1.77;;;31.60;91.30;;;;;;5092188;28;20035;-53
2023/06/15 08:19:47;;;;;;;5.78;2.25;;;31.40;91.30;;;;;;5091644;28;20090;-52
2023/06/15 08:22:13;;;;;;;4.53;1.70;;;31.90;91.00;;;;;;5090958;28;20063;-53
2023/06/15 08:24:39;;;;;;;6.30;2.40;;;31.60;91.20;;;;;;5092071;28;20216;-53
2023/06/15 08:27:05;;;;;;;5.55;1.90;;;31.50;90.80;;;;;;5092259;28;20494;-53
2023/06/15 08:29:31;;;;;;;4.53;1.95;;;31.30;89.80;;;;;;5092571;28;20138;-52
2023/06/15 08:31:57;;;;;;;6.80;1.98;;;31.30;90.50;;;;;;5091957;28;20508;-54
2023/06/15 08:34:23;;;;;;;9.38;1.95;;;31.40;90.40;;;;;;5090916;28;20157;-54
2023/06/15 08:36:49;;;;;;;4.63;1.80;;;31.30;90.20;;;;;;5091099;28;20050;-55
2023/06/15 08:39:15;;;;;;;5.93;2.08;;;30.80;87.40;;;;;;5091378;28;20040;-51
2023/06/15 08:41:44;;;;;;;5.13;2.00;;;30.70;89.50;;;;;;5089829;28;20500;-54
2023/06/15 08:44:10;;;;;;;5.13;2.10;;;30.70;90.00;;;;;;5073183;28;20046;-51
2023/06/15 08:46:36;;;;;;;6.40;1.95;;;30.10;87.50;;;;;;5092035;28;20031;-54
2023/06/15 08:49:03;;;;;;;9.27;1.88;;;30.00;87.20;;;;;;5090753;28;20136;-53
2023/06/15 08:51:29;;;;;;;5.70;1.88;;;30.10;87.30;;;;;;5091210;28;20051;-54
2023/06/15 08:53:55;;;;;;;5.68;2.00;;;30.40;88.40;;;;;;5091570;28;20739;-53
2023/06/15 08:56:21;;;;;;;4.88;2.00;;;30.00;88.00;;;;;;5073117;28;20043;-51
2023/06/15 08:58:50;;;;;;;8.20;2.13;;;29.90;89.50;;;;;;5091820;28;20059;-53
2023/06/15 09:01:26;;;;;;;5.57;2.17;;;29.40;89.40;;;;;;5090202;28;20134;-52
2023/06/15 09:03:53;;;;;;;7.75;1.80;;;28.90;90.10;;;;;;5089955;28;20047;-51
2023/06/15 09:06:20;;;;;;;6.85;2.20;;;29.10;90.60;;;;;;5089530;28;20043;-49
2023/06/15 09:08:46;;;;;;;5.68;1.98;;;29.40;90.40;;;;;;5091207;28;20036;-52
2023/06/15 09:11:12;;;;;;;8.95;2.00;;;29.40;90.40;;;;;;5091271;28;20032;-52
2023/06/15 09:13:38;;;;;;;4.75;2.28;;;28.90;90.10;;;;;;5089497;28;20057;-49
2023/06/15 09:16:07;;;;;;;5.15;2.00;;;28.80;90.90;;;;;;5089251;28;20056;-51
2023/06/15 09:18:53;;;;;;;4.75;1.95;;;28.70;91.10;;;;;;5089712;28;20047;-51
2023/06/15 09:21:22;;;;;;;4.75;1.92;;;28.10;91.70;;;;;;5090719;28;20055;-51
2023/06/15 09:23:48;;;;;;;4.13;2.10;;;27.70;90.70;;;;;;5091261;28;20039;-53
2023/06/15 09:26:25;;;;;;;5.65;2.00;;;27.00;91.00;;;;;;5089703;28;20051;-51
2023/06/15 09:28:55;;;;;;;4.13;1.90;;;27.20;92.70;;;;;;5090500;28;20052;-50
2023/06/15 09:31:34;;;;;;;6.22;2.15;;;27.20;92.40;;;;;;5090949;28;20032;-53
2023/06/15 09:34:13;;;;;;;4.43;2.17;;;27.10;92.70;;;;;;5089102;28;20824;-48
2023/06/15 09:36:48;;;;;;;8.00;2.15;;;27.30;94.20;;;;;;5089348;28;20507;-52
2023/06/15 09:39:15;;;;;;;5.28;2.35;;;27.40;92.90;;;;;;5091078;28;20204;-50
2023/06/15 09:41:56;;;;;;;10.95;2.28;;;27.60;93.20;;;;;;5088801;28;21184;-52
2023/06/15 09:44:23;;;;;;;8.70;2.17;;;27.40;91.50;;;;;;5071880;28;20748;-49
2023/06/15 09:46:53;;;;;;;6.20;2.45;;;27.30;92.90;;;;;;5090498;28;20040;-52
2023/06/15 09:49:26;;;;;;;6.70;2.15;;;27.10;92.70;;;;;;5073344;28;20031;-49
2023/06/15 09:51:57;;;;;;;8.55;2.10;;;27.30;92.60;;;;;;5091603;28;20476;-49
2023/06/15 09:54:28;;;;;;;7.35;2.35;;;27.10;92.50;;;;;;5096540;28;20060;-50
2023/06/15 09:56:54;;;;;;;8.45;2.50;;;27.20;92.80;;;;;;5095781;28;20130;-47
2023/06/15 09:59:20;;;;;;;4.68;2.22;;;26.80;91.90;;;;;;5094551;28;20043;-49
2023/06/15 10:01:49;;;;;;;7.53;2.08;;;26.80;92.30;;;;;;5094811;28;20408;-49
2023/06/15 10:04:19;;;;;;;5.78;2.08;;;26.80;92.80;;;;;;5093568;28;20046;-50
2023/06/15 10:06:47;;;;;;;5.00;2.00;;;26.90;93.30;;;;;;5096279;28;20044;-51
2023/06/15 10:09:19;;;;;;;4.45;1.88;;;26.90;92.40;;;;;;5094581;28;20583;-51
2023/06/15 10:11:47;;;;;;;6.97;2.10;;;26.80;92.00;;;;;;5096207;28;20508;-49
2023/06/15 10:14:31;;;;;;;6.53;2.03;;;26.80;92.10;;;;;;5094318;28;20040;-48
2023/06/15 10:17:02;;;;;;;7.93;2.35;;;26.80;91.80;;;;;;5076275;28;20492;-52
2023/06/15 10:19:29;;;;;;;;;;;26.70;91.60;;;;;;5093956;28;20400;-51
2023/06/15 10:21:55;;;;;;;6.68;2.10;;;27.00;92.20;;;;;;5094271;28;20006;-51
2023/06/15 10:24:24;;;;;;;6.22;1.90;;;26.60;92.00;;;;;;5092450;28;20035;-49
2023/06/15 10:26:50;;;;;;;5.82;2.00;;;26.70;91.80;;;;;;5094450;28;20050;-50
2023/06/15 10:29:25;;;;;;;5.25;2.25;;;26.60;91.40;;;;;;5093604;28;20488;-49
2023/06/15 10:32:11;;;;;;;5.32;2.00;;;26.50;91.50;;;;;;5094889;28;20035;-48
2023/06/15 10:34:53;;;;;;;5.75;2.30;;;26.60;91.70;;;;;;5092818;28;20050;-52
2023/06/15 10:37:18;;;;;;;;;;;26.80;91.80;;;;;;5093675;28;20044;-51
2023/06/15 10:39:47;;;;;;;6.43;2.80;;;26.80;91.90;;;;;;5094101;28;19930;-46
2023/06/15 10:42:14;;;;;;;6.50;2.05;;;27.00;92.40;;;;;;5091907;28;20637;-48
2023/06/15 10:44:40;;;;;;;5.07;2.35;;;27.20;92.50;;;;;;5093114;28;20115;-51
2023/06/15 10:47:10;;;;;;;8.05;2.47;;;27.20;92.80;;;;;;5093512;28;20055;-52
2023/06/15 10:49:46;;;;;;;5.60;2.28;;;27.50;92.10;;;;;;5074857;28;20036;-49
2023/06/15 10:52:13;;;;;;;6.50;2.10;;;27.60;93.00;;;;;;5092951;28;20051;-48
2023/06/15 10:54:39;;;;;;;4.05;1.88;;;27.90;92.10;;;;;;5092793;28;20042;-49
2023/06/15 10:57:07;;;;;;;5.18;2.03;;;27.90;91.30;;;;;;5091787;28;20039;-51
2023/06/15 10:59:56;;;;;;;4.35;2.20;;;27.50;91.20;;;;;;5092732;28;20070;-47
2023/06/15 11:02:28;;;;;;;6.05;2.08;;;27.30;91.90;;;;;;5092039;28;20055;-49
2023/06/15 11:05:01;;;;;;;4.45;2.20;;;27.40;91.90;;;;;;5090852;28;20062;-48
2023/06/15 11:07:34;;;;;;;6.07;2.00;;;27.20;92.20;;;;;;5093141;28;20471;-52
2023/06/15 11:10:19;;;;;;;5.75;1.92;;;27.30;93.00;;;;;;5094599;28;20189;-47
2023/06/15 11:12:49;;;;;;;4.30;2.42;;;27.60;92.10;;;;;;5092314;28;20047;-48
2023/06/15 11:15:16;;;;;;;5.97;2.28;;;27.70;92.90;;;;;;5075055;28;20593;-48
2023/06/15 11:17:59;;;;;;;5.45;2.00;;;28.30;92.50;;;;;;5092224;28;20076;-48
2023/06/15 11:20:44;;;;;;;5.95;2.10;;;27.90;91.90;;;;;;5094127;28;20696;-51
2023/06/15 11:23:18;;;;;;;8.40;2.50;;;27.90;91.60;;;;;;5091815;28;20036;-50
2023/06/15 11:25:46;;;;;;;6.30;2.10;;;27.60;90.50;;;;;;5092989;28;20047;-47
2023/06/15 11:28:15;;;;;;;7.38;2.30;;;27.50;91.60;;;;;;5093387;28;20480;-51
2023/06/15 11:30:42;;;;;;;5.53;2.13;;;27.60;91.10;;;;;;5094475;28;20032;-47
2023/06/15 11:33:12;;;;;;;9.10;3.10;;;27.70;92.20;;;;;;5092027;28;20040;-51
2023/06/15 11:35:38;;;;;;;6.45;2.22;;;27.40;91.70;;;;;;5073739;28;20036;-52
2023/06/15 11:38:07;;;;;;;4.88;1.98;;;27.70;92.20;;;;;;5092574;28;20046;-50
2023/06/15 11:40:34;;;;;;;4.13;2.00;;;27.90;91.60;;;;;;5093257;28;20043;-49
2023/06/15 11:43:02;;;;;;;5.03;1.73;;;27.60;90.40;;;;;;5093921;28;20066;-49
2023/06/15 11:45:28;;;;;;;5.30;2.17;;;27.70;90.50;;;;;;5091412;28;20047;-52
2023/06/15 11:47:54;;;;;;;6.07;2.47;;;27.30;90.40;;;;;;5091248;28;20042;-53
2023/06/15 11:50:22;;;;;;;5.25;2.10;;;26.90;90.90;;;;;;5092991;28;20047;-50
2023/06/15 11:52:48;;;;;;;4.35;1.98;;;27.10;91.90;;;;;;5093902;28;20039;-50
2023/06/15 11:55:16;;;;;;;8.70;2.10;;;27.50;91.90;;;;;;5091859;28;20053;-47
2023/06/15 11:57:43;;;;;;;6.55;2.22;;;27.60;91.60;;;;;;5091978;28;20044;-53
2023/06/15 12:00:12;;;;;;;5.32;2.20;;;28.00;91.50;;;;;;5092939;28;20040;-49
2023/06/15 12:02:41;;;;;;;5.80;2.05;;;28.00;90.60;;;;;;5092413;28;20051;-56
2023/06/15 12:05:10;;;;;;;6.53;2.22;;;27.90;88.70;;;;;;5092641;28;20055;-49
2023/06/15 12:07:37;;;;;;;4.15;2.00;;;27.60;88.20;;;;;;5073918;28;20047;-48
2023/06/15 12:10:07;;;;;;;4.38;2.13;;;27.20;88.00;;;;;;5090731;28;20031;-49
2023/06/15 12:12:35;;;;;;;4.07;2.03;;;27.30;86.30;;;;;;5071518;28;20388;-48
2023/06/15 12:15:05;;;;;;;5.32;2.20;;;27.10;87.90;;;;;;5091478;28;20040;-51
2023/06/15 12:17:34;;;;;;;4.03;2.03;;;27.00;87.80;;;;;;5091791;28;20311;-50
2023/06/15 12:20:03;;;;;;;8.45;2.13;;;27.20;88.30;;;;;;5071301;28;20104;-50
2023/06/15 12:22:34;;;;;;;5.75;2.20;;;27.10;89.50;;;;;;5091655;28;20146;-49
2023/06/15 12:25:00;;;;;;;4.03;2.08;;;27.30;90.90;;;;;;5090921;28;20036;-52
2023/06/15 12:27:26;;;;;;;4.35;2.08;;;27.30;88.60;;;;;;5089591;28;20050;-47
2023/06/15 12:30:16;;;;;;;4.60;2.47;;;27.20;88.80;;;;;;5091085;28;20315;-50
2023/06/15 12:32:46;;;;;;;4.63;2.03;;;27.10;90.00;;;;;;5078541;28;20044;-51
2023/06/15 12:35:38;;;;;;;6.03;2.10;;;27.40;90.60;;;;;;5090836;28;20482;-51
2023/06/15 12:38:07;;;;;;;3.17;1.75;;;27.30;91.50;;;;;;5091266;28;20522;-48
2023/06/15 12:40:39;;;;;;;7.18;2.10;;;27.80;91.20;;;;;;5091532;28;20040;-52
2023/06/15 12:43:05;;;;;;;4.95;2.00;;;27.60;90.00;;;;;;5090520;28;20215;-52
2023/06/15 12:45:35;;;;;;;6.57;2.10;;;27.70;90.70;;;;;;5091053;28;20511;-50
2023/06/15 12:48:01;;;;;;;5.80;2.20;;;27.40;90.00;;;;;;5092230;28;20047;-50